Charlotte, Texas
Current Conditions -  °F | °C
As of 10:15 AM on Thursday 18 Dec 2014 (Local Time) from KPEZ Reporting Station
Haze Haze  
Wind Chill: 58°   Ceiling: 500
Heat Index: 58°   Visibility: 5mi
Dew Point: 56°   Wind: 6mph
Humidity: 96%   Direction: 30°NNE
Pressure: 30.13"   Gusts: NA
Location:  28.86°N, 98.71°W
Report Text: KPEZ 181615Z AUTO 03005KT 5SM BR OVC005 14/14 A3013 RMK AO2 T01420135
Loading
Personal Weather Stations






























Interactive Weather Map New forecast layout! Learn more

10-Day Weather Forecast

Advertisements
Track Severe Weather on mobile